sensor_id;sensor_type;location;lat;lon;timestamp;temperature;humidity
9668;DHT22;4872;48.316;10.650;2022-12-18T04:50:51;-4.20;99.90
9668;DHT22;4872;48.316;10.650;2022-12-18T04:53:18;-4.30;99.90
9668;DHT22;4872;48.316;10.650;2022-12-18T04:55:44;-4.30;99.90
9668;DHT22;4872;48.316;10.650;2022-12-18T04:58:11;-4.30;99.90
9668;DHT22;4872;48.316;10.650;2022-12-18T05:00:38;-4.20;99.90
9668;DHT22;4872;48.316;10.650;2022-12-18T05:03:05;-4.20;99.90
9668;DHT22;4872;48.316;10.650;2022-12-18T05:05:33;-4.10;99.90
9668;DHT22;4872;48.316;10.650;2022-12-18T05:08:02;-4.10;99.90
9668;DHT22;4872;48.316;10.650;2022-12-18T05:10:28;-4.20;99.90
9668;DHT22;4872;48.316;10.650;2022-12-18T05:12:55;-4.20;99.90
9668;DHT22;4872;48.316;10.650;2022-12-18T05:15:27;-4.20;99.90
9668;DHT22;4872;48.316;10.650;2022-12-18T05:17:54;-4.20;99.90
9668;DHT22;4872;48.316;10.650;2022-12-18T05:20:20;-4.20;99.90
9668;DHT22;4872;48.316;10.650;2022-12-18T05:22:47;-4.10;99.90
9668;DHT22;4872;48.316;10.650;2022-12-18T05:25:15;-4.10;99.90
9668;DHT22;4872;48.316;10.650;2022-12-18T05:27:42;-4.10;99.90
9668;DHT22;4872;48.316;10.650;2022-12-18T05:30:10;-4.10;99.90
9668;DHT22;4872;48.316;10.650;2022-12-18T05:32:37;-4.00;99.90
9668;DHT22;4872;48.316;10.650;2022-12-18T05:35:06;-4.00;99.90
9668;DHT22;4872;48.316;10.650;2022-12-18T05:37:34;-4.00;99.90
9668;DHT22;4872;48.316;10.650;2022-12-18T05:40:01;-4.00;99.90
9668;DHT22;4872;48.316;10.650;2022-12-18T05:42:29;-4.00;99.90
9668;DHT22;4872;48.316;10.650;2022-12-18T05:44:56;-4.00;99.90
9668;DHT22;4872;48.316;10.650;2022-12-18T05:47:23;-4.00;99.90
9668;DHT22;4872;48.316;10.650;2022-12-18T05:49:50;-4.00;99.90
9668;DHT22;4872;48.316;10.650;2022-12-18T05:52:16;-3.90;99.90
9668;DHT22;4872;48.316;10.650;2022-12-18T05:54:43;-4.00;99.90
9668;DHT22;4872;48.316;10.650;2022-12-18T05:57:10;-4.00;99.90
9668;DHT22;4872;48.316;10.650;2022-12-18T05:59:38;-4.00;99.90
9668;DHT22;4872;48.316;10.650;2022-12-18T06:02:05;-4.00;99.90
9668;DHT22;4872;48.316;10.650;2022-12-18T06:04:32;-4.00;99.90
9668;DHT22;4872;48.316;10.650;2022-12-18T06:06:59;-4.00;99.90
9668;DHT22;4872;48.316;10.650;2022-12-18T06:09:26;-3.90;99.90
9668;DHT22;4872;48.316;10.650;2022-12-18T06:11:52;-3.90;99.90
9668;DHT22;4872;48.316;10.650;2022-12-18T06:14:19;-3.90;99.90
9668;DHT22;4872;48.316;10.650;2022-12-18T06:16:47;-3.90;99.90
9668;DHT22;4872;48.316;10.650;2022-12-18T06:19:16;-3.90;99.90
9668;DHT22;4872;48.316;10.650;2022-12-18T06:21:43;-3.90;99.90
9668;DHT22;4872;48.316;10.650;2022-12-18T06:24:10;-3.90;99.90
9668;DHT22;4872;48.316;10.650;2022-12-18T06:26:37;-3.90;99.90
9668;DHT22;4872;48.316;10.650;2022-12-18T06:29:04;-3.90;99.90
9668;DHT22;4872;48.316;10.650;2022-12-18T06:31:31;-3.80;99.90
9668;DHT22;4872;48.316;10.650;2022-12-18T06:34:01;-3.80;99.90
9668;DHT22;4872;48.316;10.650;2022-12-18T06:36:28;-3.80;99.90
9668;DHT22;4872;48.316;10.650;2022-12-18T06:38:56;-3.80;99.90
9668;DHT22;4872;48.316;10.650;2022-12-18T06:41:23;-3.80;99.90
9668;DHT22;4872;48.316;10.650;2022-12-18T06:43:50;-3.90;99.90
9668;DHT22;4872;48.316;10.650;2022-12-18T06:46:17;-3.90;99.90
9668;DHT22;4872;48.316;10.650;2022-12-18T06:48:47;-3.90;99.90
9668;DHT22;4872;48.316;10.650;2022-12-18T06:51:17;-3.90;99.90
9668;DHT22;4872;48.316;10.650;2022-12-18T06:53:44;-3.90;99.90
9668;DHT22;4872;48.316;10.650;2022-12-18T06:56:11;-3.90;99.90
9668;DHT22;4872;48.316;10.650;2022-12-18T06:58:38;-3.90;99.90
9668;DHT22;4872;48.316;10.650;2022-12-18T07:01:07;-3.90;99.90
9668;DHT22;4872;48.316;10.650;2022-12-18T07:03:34;-3.90;99.90
9668;DHT22;4872;48.316;10.650;2022-12-18T07:06:01;-3.90;99.90
9668;DHT22;4872;48.316;10.650;2022-12-18T07:08:30;-3.90;99.90
9668;DHT22;4872;48.316;10.650;2022-12-18T07:10:57;-3.90;99.90
9668;DHT22;4872;48.316;10.650;2022-12-18T07:13:24;-3.90;99.90
9668;DHT22;4872;48.316;10.650;2022-12-18T07:15:50;-3.90;99.90
9668;DHT22;4872;48.316;10.650;2022-12-18T07:18:17;-3.90;99.90
9668;DHT22;4872;48.316;10.650;2022-12-18T07:20:44;-3.90;99.90
9668;DHT22;4872;48.316;10.650;2022-12-18T07:23:11;-3.90;99.90
9668;DHT22;4872;48.316;10.650;2022-12-18T07:25:39;-3.90;99.90
9668;DHT22;4872;48.316;10.650;2022-12-18T07:28:06;-4.00;99.90
9668;DHT22;4872;48.316;10.650;2022-12-18T07:30:32;-3.90;99.90
9668;DHT22;4872;48.316;10.650;2022-12-18T07:32:59;-3.90;99.90
9668;DHT22;4872;48.316;10.650;2022-12-18T07:35:26;-3.90;99.90
9668;DHT22;4872;48.316;10.650;2022-12-18T07:37:53;-3.90;99.90
9668;DHT22;4872;48.316;10.650;2022-12-18T07:40:20;-3.90;99.90
9668;DHT22;4872;48.316;10.650;2022-12-18T07:42:48;-4.00;99.90
9668;DHT22;4872;48.316;10.650;2022-12-18T07:45:15;-4.00;99.90
9668;DHT22;4872;48.316;10.650;2022-12-18T07:47:41;-4.00;99.90
9668;DHT22;4872;48.316;10.650;2022-12-18T07:50:08;-4.00;99.90
9668;DHT22;4872;48.316;10.650;2022-12-18T07:52:35;-3.90;99.90
9668;DHT22;4872;48.316;10.650;2022-12-18T07:55:03;-3.90;99.90
9668;DHT22;4872;48.316;10.650;2022-12-18T07:57:30;-3.80;99.90
9668;DHT22;4872;48.316;10.650;2022-12-18T07:59:58;-3.80;99.90
9668;DHT22;4872;48.316;10.650;2022-12-18T08:02:24;-3.80;99.90
9668;DHT22;4872;48.316;10.650;2022-12-18T08:04:51;-3.80;99.90
9668;DHT22;4872;48.316;10.650;2022-12-18T08:07:18;-3.80;99.90
9668;DHT22;4872;48.316;10.650;2022-12-18T08:09:45;-3.80;99.90
9668;DHT22;4872;48.316;10.650;2022-12-18T08:12:11;-3.80;99.90
9668;DHT22;4872;48.316;10.650;2022-12-18T08:14:38;-3.80;99.90
9668;DHT22;4872;48.316;10.650;2022-12-18T08:17:06;-3.70;99.90
9668;DHT22;4872;48.316;10.650;2022-12-18T08:19:33;-3.60;99.90
9668;DHT22;4872;48.316;10.650;2022-12-18T08:22:00;-3.50;99.90
9668;DHT22;4872;48.316;10.650;2022-12-18T08:24:27;-3.50;99.90
9668;DHT22;4872;48.316;10.650;2022-12-18T08:26:53;-3.40;99.90
9668;DHT22;4872;48.316;10.650;2022-12-18T08:29:22;-3.40;99.90
9668;DHT22;4872;48.316;10.650;2022-12-18T08:31:49;-3.40;99.90
9668;DHT22;4872;48.316;10.650;2022-12-18T08:34:17;-3.40;99.90
9668;DHT22;4872;48.316;10.650;2022-12-18T08:36:44;-3.40;99.90
9668;DHT22;4872;48.316;10.650;2022-12-18T08:39:10;-3.40;99.90
9668;DHT22;4872;48.316;10.650;2022-12-18T08:41:37;-3.40;99.90
9668;DHT22;4872;48.316;10.650;2022-12-18T08:44:04;-3.40;99.90
9668;DHT22;4872;48.316;10.650;2022-12-18T08:46:48;-3.40;99.90
9668;DHT22;4872;48.316;10.650;2022-12-18T08:49:16;-3.40;99.90
9668;DHT22;4872;48.316;10.650;2022-12-18T08:51:43;-3.40;99.90
9668;DHT22;4872;48.316;10.650;2022-12-18T08:54:11;-3.40;99.90
9668;DHT22;4872;48.316;10.650;2022-12-18T08:56:38;-3.40;99.90
9668;DHT22;4872;48.316;10.650;2022-12-18T08:59:05;-3.40;99.90
9668;DHT22;4872;48.316;10.650;2022-12-18T09:01:32;-3.40;99.90
9668;DHT22;4872;48.316;10.650;2022-12-18T09:03:59;-3.40;99.90
9668;DHT22;4872;48.316;10.650;2022-12-18T09:06:27;-3.40;99.90
9668;DHT22;4872;48.316;10.650;2022-12-18T09:08:53;-3.30;99.90
9668;DHT22;4872;48.316;10.650;2022-12-18T09:11:22;-3.30;99.90
9668;DHT22;4872;48.316;10.650;2022-12-18T09:13:49;-3.20;99.90
9668;DHT22;4872;48.316;10.650;2022-12-18T09:16:16;-3.20;99.70
9668;DHT22;4872;48.316;10.650;2022-12-18T09:18:43;-3.20;99.80
9668;DHT22;4872;48.316;10.650;2022-12-18T09:21:11;-3.10;99.80
9668;DHT22;4872;48.316;10.650;2022-12-18T09:23:39;-3.00;99.60
9668;DHT22;4872;48.316;10.650;2022-12-18T09:26:07;-3.00;99.40
9668;DHT22;4872;48.316;10.650;2022-12-18T09:28:34;-2.90;99.30
9668;DHT22;4872;48.316;10.650;2022-12-18T09:31:04;-2.90;99.20
9668;DHT22;4872;48.316;10.650;2022-12-18T09:33:32;-2.80;99.20
9668;DHT22;4872;48.316;10.650;2022-12-18T09:36:01;-2.70;99.20
9668;DHT22;4872;48.316;10.650;2022-12-18T09:38:28;-2.70;99.00
9668;DHT22;4872;48.316;10.650;2022-12-18T09:40:59;-2.70;98.90
9668;DHT22;4872;48.316;10.650;2022-12-18T09:43:29;-2.70;99.00
9668;DHT22;4872;48.316;10.650;2022-12-18T09:46:02;-2.70;99.10
9668;DHT22;4872;48.316;10.650;2022-12-18T09:48:32;-2.70;98.90
9668;DHT22;4872;48.316;10.650;2022-12-18T09:51:03;-2.60;98.80
9668;DHT22;4872;48.316;10.650;2022-12-18T09:53:35;-2.60;98.80
9668;DHT22;4872;48.316;10.650;2022-12-18T09:56:07;-2.60;98.80
9668;DHT22;4872;48.316;10.650;2022-12-18T09:58:43;-2.50;98.80
9668;DHT22;4872;48.316;10.650;2022-12-18T10:01:12;-2.50;98.80
9668;DHT22;4872;48.316;10.650;2022-12-18T10:03:41;-2.40;98.60
9668;DHT22;4872;48.316;10.650;2022-12-18T10:06:13;-2.40;98.70
9668;DHT22;4872;48.316;10.650;2022-12-18T10:08:46;-2.40;98.40
9668;DHT22;4872;48.316;10.650;2022-12-18T10:11:31;-2.40;98.50
9668;DHT22;4872;48.316;10.650;2022-12-18T10:14:05;-2.40;98.30
9668;DHT22;4872;48.316;10.650;2022-12-18T10:16:38;-2.50;98.40
9668;DHT22;4872;48.316;10.650;2022-12-18T10:19:18;-2.50;98.60
9668;DHT22;4872;48.316;10.650;2022-12-18T10:21:54;-2.40;98.40
9668;DHT22;4872;48.316;10.650;2022-12-18T10:24:27;-2.40;98.30
9668;DHT22;4872;48.316;10.650;2022-12-18T10:27:09;-2.30;98.10
9668;DHT22;4872;48.316;10.650;2022-12-18T10:29:38;-2.40;98.10
9668;DHT22;4872;48.316;10.650;2022-12-18T10:32:04;-2.40;98.10
9668;DHT22;4872;48.316;10.650;2022-12-18T10:34:31;-2.40;98.10
9668;DHT22;4872;48.316;10.650;2022-12-18T10:37:00;-2.40;98.00
9668;DHT22;4872;48.316;10.650;2022-12-18T10:39:28;-2.30;98.30
9668;DHT22;4872;48.316;10.650;2022-12-18T10:42:10;-2.30;98.20
9668;DHT22;4872;48.316;10.650;2022-12-18T10:44:37;-2.30;98.30
9668;DHT22;4872;48.316;10.650;2022-12-18T10:47:05;-2.30;98.30
9668;DHT22;4872;48.316;10.650;2022-12-18T10:49:33;-2.30;98.30
9668;DHT22;4872;48.316;10.650;2022-12-18T10:52:11;-2.20;99.30
9668;DHT22;4872;48.316;10.650;2022-12-18T10:54:45;-2.00;99.90
9668;DHT22;4872;48.316;10.650;2022-12-18T10:57:29;-1.80;99.80
9668;DHT22;4872;48.316;10.650;2022-12-18T10:59:58;-1.70;99.40
9668;DHT22;4872;48.316;10.650;2022-12-18T11:02:28;-1.70;98.50
9668;DHT22;4872;48.316;10.650;2022-12-18T11:04:59;-1.70;98.00
9668;DHT22;4872;48.316;10.650;2022-12-18T11:07:47;-1.80;97.90
9668;DHT22;4872;48.316;10.650;2022-12-18T11:10:16;-1.90;97.90
9668;DHT22;4872;48.316;10.650;2022-12-18T11:12:45;-2.00;97.60
9668;DHT22;4872;48.316;10.650;2022-12-18T11:15:16;-2.00;97.60
9668;DHT22;4872;48.316;10.650;2022-12-18T11:17:48;-2.10;97.40
9668;DHT22;4872;48.316;10.650;2022-12-18T11:20:31;-2.10;97.50
9668;DHT22;4872;48.316;10.650;2022-12-18T11:23:00;-2.00;97.50
9668;DHT22;4872;48.316;10.650;2022-12-18T11:25:27;-2.00;97.30
9668;DHT22;4872;48.316;10.650;2022-12-18T11:27:58;-2.00;97.30
9668;DHT22;4872;48.316;10.650;2022-12-18T11:30:27;-2.00;97.20
9668;DHT22;4872;48.316;10.650;2022-12-18T11:32:58;-2.00;97.20
9668;DHT22;4872;48.316;10.650;2022-12-18T11:35:35;-2.00;96.90
9668;DHT22;4872;48.316;10.650;2022-12-18T11:38:13;-2.00;96.90
9668;DHT22;4872;48.316;10.650;2022-12-18T11:40:47;-2.00;97.10
9668;DHT22;4872;48.316;10.650;2022-12-18T11:43:20;-2.10;97.00
9668;DHT22;4872;48.316;10.650;2022-12-18T11:45:52;-2.10;96.90
9668;DHT22;4872;48.316;10.650;2022-12-18T11:48:23;-2.00;96.90
9668;DHT22;4872;48.316;10.650;2022-12-18T11:50:53;-2.00;97.00
9668;DHT22;4872;48.316;10.650;2022-12-18T11:53:21;-2.00;97.00
9668;DHT22;4872;48.316;10.650;2022-12-18T11:55:56;-2.00;97.00
9668;DHT22;4872;48.316;10.650;2022-12-18T11:58:41;-2.00;97.30
9668;DHT22;4872;48.316;10.650;2022-12-18T12:01:16;-1.90;97.40
9668;DHT22;4872;48.316;10.650;2022-12-18T12:06:49;-1.80;97.30
9668;DHT22;4872;48.316;10.650;2022-12-18T12:09:25;-1.80;96.70
9668;DHT22;4872;48.316;10.650;2022-12-18T12:12:10;-1.80;96.90
9668;DHT22;4872;48.316;10.650;2022-12-18T12:14:47;-1.80;96.80
9668;DHT22;4872;48.316;10.650;2022-12-18T12:17:24;-1.80;97.00
9668;DHT22;4872;48.316;10.650;2022-12-18T12:20:00;-1.70;96.90
9668;DHT22;4872;48.316;10.650;2022-12-18T12:22:34;-1.80;97.00
9668;DHT22;4872;48.316;10.650;2022-12-18T12:25:14;-1.80;97.10
9668;DHT22;4872;48.316;10.650;2022-12-18T12:27:51;-1.80;97.10
9668;DHT22;4872;48.316;10.650;2022-12-18T12:30:22;-1.80;96.90
9668;DHT22;4872;48.316;10.650;2022-12-18T12:33:06;-1.80;97.10
9668;DHT22;4872;48.316;10.650;2022-12-18T12:35:44;-1.80;97.30
9668;DHT22;4872;48.316;10.650;2022-12-18T12:38:17;-1.80;97.50
9668;DHT22;4872;48.316;10.650;2022-12-18T12:40:48;-1.90;97.20
9668;DHT22;4872;48.316;10.650;2022-12-18T12:43:23;-2.00;97.40
9668;DHT22;4872;48.316;10.650;2022-12-18T12:45:54;-2.00;97.30
9668;DHT22;4872;48.316;10.650;2022-12-18T12:48:32;-2.00;97.50
9668;DHT22;4872;48.316;10.650;2022-12-18T12:51:01;-2.10;97.00
9668;DHT22;4872;48.316;10.650;2022-12-18T12:53:34;-2.00;97.30
9668;DHT22;4872;48.316;10.650;2022-12-18T12:56:03;-2.00;97.00
9668;DHT22;4872;48.316;10.650;2022-12-18T12:58:38;-2.10;96.80
9668;DHT22;4872;48.316;10.650;2022-12-18T13:01:17;-2.10;97.20
9668;DHT22;4872;48.316;10.650;2022-12-18T13:03:52;-2.10;96.90
9668;DHT22;4872;48.316;10.650;2022-12-18T13:06:32;-2.10;97.20
9668;DHT22;4872;48.316;10.650;2022-12-18T13:09:00;-2.10;97.40
9668;DHT22;4872;48.316;10.650;2022-12-18T13:11:34;-2.10;97.50
9668;DHT22;4872;48.316;10.650;2022-12-18T13:14:22;-2.00;97.20
9668;DHT22;4872;48.316;10.650;2022-12-18T13:16:51;-2.00;97.30
9668;DHT22;4872;48.316;10.650;2022-12-18T13:19:25;-2.00;97.30
9668;DHT22;4872;48.316;10.650;2022-12-18T13:21:54;-1.90;97.20
9668;DHT22;4872;48.316;10.650;2022-12-18T13:24:25;-2.00;97.20
9668;DHT22;4872;48.316;10.650;2022-12-18T13:26:53;-2.00;97.00
9668;DHT22;4872;48.316;10.650;2022-12-18T13:29:42;-2.00;97.20
9668;DHT22;4872;48.316;10.650;2022-12-18T13:32:24;-2.00;97.20
9668;DHT22;4872;48.316;10.650;2022-12-18T13:37:56;-2.10;97.30
9668;DHT22;4872;48.316;10.650;2022-12-18T13:40:54;-2.10;97.50
9668;DHT22;4872;48.316;10.650;2022-12-18T13:43:32;-2.20;97.30
9668;DHT22;4872;48.316;10.650;2022-12-18T13:46:05;-2.10;97.40
9668;DHT22;4872;48.316;10.650;2022-12-18T13:48:37;-2.10;97.50
9668;DHT22;4872;48.316;10.650;2022-12-18T13:51:07;-2.10;97.40
9668;DHT22;4872;48.316;10.650;2022-12-18T13:53:39;-2.10;97.30
9668;DHT22;4872;48.316;10.650;2022-12-18T13:56:08;-2.10;97.40
9668;DHT22;4872;48.316;10.650;2022-12-18T13:58:35;-2.20;97.50
9668;DHT22;4872;48.316;10.650;2022-12-18T14:01:02;-2.30;97.20
9668;DHT22;4872;48.316;10.650;2022-12-18T14:03:30;-2.30;97.20
9668;DHT22;4872;48.316;10.650;2022-12-18T14:06:02;-2.30;97.30
9668;DHT22;4872;48.316;10.650;2022-12-18T14:08:37;-2.30;97.40
9668;DHT22;4872;48.316;10.650;2022-12-18T14:11:06;-2.30;97.50
9668;DHT22;4872;48.316;10.650;2022-12-18T14:13:36;-2.40;97.50
9668;DHT22;4872;48.316;10.650;2022-12-18T14:16:05;-2.40;97.30
9668;DHT22;4872;48.316;10.650;2022-12-18T14:18:38;-2.50;97.30
9668;DHT22;4872;48.316;10.650;2022-12-18T14:21:18;-2.50;97.40
9668;DHT22;4872;48.316;10.650;2022-12-18T14:23:46;-2.50;97.50
9668;DHT22;4872;48.316;10.650;2022-12-18T14:26:24;-2.60;97.50
9668;DHT22;4872;48.316;10.650;2022-12-18T14:28:53;-2.70;97.80
9668;DHT22;4872;48.316;10.650;2022-12-18T14:31:22;-2.70;97.90
9668;DHT22;4872;48.316;10.650;2022-12-18T14:33:49;-2.70;97.90
9668;DHT22;4872;48.316;10.650;2022-12-18T14:36:20;-2.70;98.10
9668;DHT22;4872;48.316;10.650;2022-12-18T14:38:49;-2.80;97.90
9668;DHT22;4872;48.316;10.650;2022-12-18T14:41:18;-2.80;98.10
9668;DHT22;4872;48.316;10.650;2022-12-18T14:43:46;-2.80;98.10
9668;DHT22;4872;48.316;10.650;2022-12-18T14:46:32;-2.90;98.10
9668;DHT22;4872;48.316;10.650;2022-12-18T14:49:02;-3.00;98.20
9668;DHT22;4872;48.316;10.650;2022-12-18T14:51:33;-3.10;98.40
9668;DHT22;4872;48.316;10.650;2022-12-18T14:54:02;-3.20;98.40
9668;DHT22;4872;48.316;10.650;2022-12-18T14:56:31;-3.20;98.50
9668;DHT22;4872;48.316;10.650;2022-12-18T14:58:59;-3.30;98.70
9668;DHT22;4872;48.316;10.650;2022-12-18T15:01:29;-3.40;98.60
9668;DHT22;4872;48.316;10.650;2022-12-18T15:03:58;-3.40;98.90
9668;DHT22;4872;48.316;10.650;2022-12-18T15:06:32;-3.50;98.80
9668;DHT22;4872;48.316;10.650;2022-12-18T15:09:01;-3.50;98.90
9668;DHT22;4872;48.316;10.650;2022-12-18T15:11:34;-3.40;98.80
9668;DHT22;4872;48.316;10.650;2022-12-18T15:14:22;-3.50;98.90
9668;DHT22;4872;48.316;10.650;2022-12-18T15:16:51;-3.50;99.00
9668;DHT22;4872;48.316;10.650;2022-12-18T15:19:20;-3.50;99.10
9668;DHT22;4872;48.316;10.650;2022-12-18T15:21:48;-3.40;99.20
9668;DHT22;4872;48.316;10.650;2022-12-18T15:24:18;-3.50;99.00
9668;DHT22;4872;48.316;10.650;2022-12-18T15:26:45;-3.40;99.20
9668;DHT22;4872;48.316;10.650;2022-12-18T15:29:19;-3.40;99.10
9668;DHT22;4872;48.316;10.650;2022-12-18T15:31:58;-3.40;99.10
9668;DHT22;4872;48.316;10.650;2022-12-18T15:34:25;-3.40;99.10
9668;DHT22;4872;48.316;10.650;2022-12-18T15:36:54;-3.30;99.20
9668;DHT22;4872;48.316;10.650;2022-12-18T15:39:21;-3.30;99.10
9668;DHT22;4872;48.316;10.650;2022-12-18T15:41:48;-3.30;99.00
9668;DHT22;4872;48.316;10.650;2022-12-18T15:44:32;-3.30;99.00
9668;DHT22;4872;48.316;10.650;2022-12-18T15:46:59;-3.20;99.00
9668;DHT22;4872;48.316;10.650;2022-12-18T15:49:26;-3.20;98.90
9668;DHT22;4872;48.316;10.650;2022-12-18T15:51:57;-3.20;99.10
9668;DHT22;4872;48.316;10.650;2022-12-18T15:54:25;-3.20;98.90
9668;DHT22;4872;48.316;10.650;2022-12-18T15:57:09;-3.20;98.90
9668;DHT22;4872;48.316;10.650;2022-12-18T15:59:52;-3.20;98.70
9668;DHT22;4872;48.316;10.650;2022-12-18T16:02:21;-3.30;98.80
9668;DHT22;4872;48.316;10.650;2022-12-18T16:04:49;-3.20;98.70
9668;DHT22;4872;48.316;10.650;2022-12-18T16:07:17;-3.40;98.70
9668;DHT22;4872;48.316;10.650;2022-12-18T16:09:44;-3.30;98.90
9668;DHT22;4872;48.316;10.650;2022-12-18T16:12:16;-3.30;98.80
9668;DHT22;4872;48.316;10.650;2022-12-18T16:14:43;-3.30;99.00
9668;DHT22;4872;48.316;10.650;2022-12-18T16:17:11;-3.30;98.90
9668;DHT22;4872;48.316;10.650;2022-12-18T16:19:39;-3.30;98.90
9668;DHT22;4872;48.316;10.650;2022-12-18T16:22:08;-3.30;99.00
9668;DHT22;4872;48.316;10.650;2022-12-18T16:24:40;-3.30;99.00
9668;DHT22;4872;48.316;10.650;2022-12-18T16:27:08;-3.30;99.10
9668;DHT22;4872;48.316;10.650;2022-12-18T16:29:34;-3.40;99.10
9668;DHT22;4872;48.316;10.650;2022-12-18T16:32:01;-3.40;99.10
9668;DHT22;4872;48.316;10.650;2022-12-18T16:34:29;-3.40;99.10
9668;DHT22;4872;48.316;10.650;2022-12-18T16:36:57;-3.40;99.00
9668;DHT22;4872;48.316;10.650;2022-12-18T16:39:25;-3.40;99.00
9668;DHT22;4872;48.316;10.650;2022-12-18T16:41:53;-3.30;99.10
9668;DHT22;4872;48.316;10.650;2022-12-18T16:44:20;-3.40;99.20
9668;DHT22;4872;48.316;10.650;2022-12-18T16:46:47;-3.40;99.00
9668;DHT22;4872;48.316;10.650;2022-12-18T16:49:14;-3.40;99.20
9668;DHT22;4872;48.316;10.650;2022-12-18T16:51:41;-3.50;99.20
9668;DHT22;4872;48.316;10.650;2022-12-18T16:54:09;-3.50;99.30
9668;DHT22;4872;48.316;10.650;2022-12-18T16:56:36;-3.50;99.30
9668;DHT22;4872;48.316;10.650;2022-12-18T16:59:04;-3.50;99.30
9668;DHT22;4872;48.316;10.650;2022-12-18T17:01:32;-3.50;99.30
9668;DHT22;4872;48.316;10.650;2022-12-18T17:04:00;-3.50;99.30
9668;DHT22;4872;48.316;10.650;2022-12-18T17:06:29;-3.40;99.40
9668;DHT22;4872;48.316;10.650;2022-12-18T17:08:57;-3.40;99.30
9668;DHT22;4872;48.316;10.650;2022-12-18T17:11:25;-3.40;99.40
9668;DHT22;4872;48.316;10.650;2022-12-18T17:13:52;-3.40;99.40
9668;DHT22;4872;48.316;10.650;2022-12-18T17:16:21;-3.50;99.20
9668;DHT22;4872;48.316;10.650;2022-12-18T17:18:48;-3.50;99.20
9668;DHT22;4872;48.316;10.650;2022-12-18T17:21:15;-3.50;99.30
9668;DHT22;4872;48.316;10.650;2022-12-18T17:23:42;-3.50;99.30
9668;DHT22;4872;48.316;10.650;2022-12-18T17:26:10;-3.50;99.40
9668;DHT22;4872;48.316;10.650;2022-12-18T17:28:37;-3.50;99.40
9668;DHT22;4872;48.316;10.650;2022-12-18T17:31:10;-3.50;99.40
9668;DHT22;4872;48.316;10.650;2022-12-18T17:33:39;-3.50;99.70
9668;DHT22;4872;48.316;10.650;2022-12-18T17:36:06;-3.50;99.50
9668;DHT22;4872;48.316;10.650;2022-12-18T17:38:33;-3.50;99.40
9668;DHT22;4872;48.316;10.650;2022-12-18T17:41:00;-3.50;99.40
9668;DHT22;4872;48.316;10.650;2022-12-18T17:43:28;-3.50;99.60
9668;DHT22;4872;48.316;10.650;2022-12-18T17:45:55;-3.50;99.60
9668;DHT22;4872;48.316;10.650;2022-12-18T17:48:22;-3.40;99.60
9668;DHT22;4872;48.316;10.650;2022-12-18T17:50:50;-3.40;99.50
9668;DHT22;4872;48.316;10.650;2022-12-18T17:53:17;-3.40;99.50
9668;DHT22;4872;48.316;10.650;2022-12-18T17:55:43;-3.40;99.40
9668;DHT22;4872;48.316;10.650;2022-12-18T17:58:18;-3.40;99.40
9668;DHT22;4872;48.316;10.650;2022-12-18T18:00:45;-3.40;99.30
9668;DHT22;4872;48.316;10.650;2022-12-18T18:03:12;-3.40;99.40
9668;DHT22;4872;48.316;10.650;2022-12-18T18:05:39;-3.40;99.50
9668;DHT22;4872;48.316;10.650;2022-12-18T18:08:07;-3.40;99.40
9668;DHT22;4872;48.316;10.650;2022-12-18T18:10:34;-3.40;99.50
9668;DHT22;4872;48.316;10.650;2022-12-18T18:13:02;-3.40;99.50
9668;DHT22;4872;48.316;10.650;2022-12-18T18:15:54;-3.40;99.60
9668;DHT22;4872;48.316;10.650;2022-12-18T18:18:21;-3.40;99.60
9668;DHT22;4872;48.316;10.650;2022-12-18T18:20:48;-3.40;99.40
9668;DHT22;4872;48.316;10.650;2022-12-18T18:23:16;-3.40;99.50
9668;DHT22;4872;48.316;10.650;2022-12-18T18:25:43;-3.40;99.40
9668;DHT22;4872;48.316;10.650;2022-12-18T18:28:11;-3.40;99.40
9668;DHT22;4872;48.316;10.650;2022-12-18T18:30:38;-3.50;99.40
9668;DHT22;4872;48.316;10.650;2022-12-18T18:33:05;-3.50;99.50
9668;DHT22;4872;48.316;10.650;2022-12-18T18:35:32;-3.50;99.60
9668;DHT22;4872;48.316;10.650;2022-12-18T18:37:58;-3.40;99.50
9668;DHT22;4872;48.316;10.650;2022-12-18T18:40:29;-3.50;99.60
9668;DHT22;4872;48.316;10.650;2022-12-18T18:42:56;-3.40;99.60
9668;DHT22;4872;48.316;10.650;2022-12-18T18:45:22;-3.40;99.60
9668;DHT22;4872;48.316;10.650;2022-12-18T18:47:49;-3.40;99.60
9668;DHT22;4872;48.316;10.650;2022-12-18T18:50:16;-3.40;99.60
9668;DHT22;4872;48.316;10.650;2022-12-18T18:52:43;-3.40;99.70
9668;DHT22;4872;48.316;10.650;2022-12-18T18:55:10;-3.40;99.50
9668;DHT22;4872;48.316;10.650;2022-12-18T18:57:38;-3.40;99.60
9668;DHT22;4872;48.316;10.650;2022-12-18T19:00:06;-3.40;99.70
9668;DHT22;4872;48.316;10.650;2022-12-18T19:02:34;-3.50;99.70
9668;DHT22;4872;48.316;10.650;2022-12-18T19:05:01;-3.50;99.80
9668;DHT22;4872;48.316;10.650;2022-12-18T19:07:28;-3.50;99.80
9668;DHT22;4872;48.316;10.650;2022-12-18T19:09:54;-3.50;99.70
9668;DHT22;4872;48.316;10.650;2022-12-18T19:12:21;-3.50;99.80
9668;DHT22;4872;48.316;10.650;2022-12-18T19:15:08;-3.60;99.70
9668;DHT22;4872;48.316;10.650;2022-12-18T19:17:34;-3.60;99.90
9668;DHT22;4872;48.316;10.650;2022-12-18T19:20:02;-3.60;99.90
9668;DHT22;4872;48.316;10.650;2022-12-18T19:22:29;-3.70;99.90
9668;DHT22;4872;48.316;10.650;2022-12-18T19:24:55;-3.70;99.90
9668;DHT22;4872;48.316;10.650;2022-12-18T19:27:22;-3.70;99.90
9668;DHT22;4872;48.316;10.650;2022-12-18T19:29:52;-3.70;99.90
9668;DHT22;4872;48.316;10.650;2022-12-18T19:32:20;-3.70;99.90
9668;DHT22;4872;48.316;10.650;2022-12-18T19:34:47;-3.70;99.90
9668;DHT22;4872;48.316;10.650;2022-12-18T19:37:14;-3.60;99.90
9668;DHT22;4872;48.316;10.650;2022-12-18T19:39:40;-3.60;99.90
9668;DHT22;4872;48.316;10.650;2022-12-18T19:42:07;-3.60;99.90
9668;DHT22;4872;48.316;10.650;2022-12-18T19:44:34;-3.60;99.90
9668;DHT22;4872;48.316;10.650;2022-12-18T19:47:01;-3.50;99.90
9668;DHT22;4872;48.316;10.650;2022-12-18T19:49:29;-3.60;99.90
9668;DHT22;4872;48.316;10.650;2022-12-18T19:51:57;-3.60;99.90
9668;DHT22;4872;48.316;10.650;2022-12-18T19:54:24;-3.60;99.90
9668;DHT22;4872;48.316;10.650;2022-12-18T19:56:51;-3.60;99.90
9668;DHT22;4872;48.316;10.650;2022-12-18T19:59:18;-3.50;99.90
9668;DHT22;4872;48.316;10.650;2022-12-18T20:01:45;-3.50;99.90
9668;DHT22;4872;48.316;10.650;2022-12-18T20:04:11;-3.50;99.90
9668;DHT22;4872;48.316;10.650;2022-12-18T20:06:47;-3.50;99.90
9668;DHT22;4872;48.316;10.650;2022-12-18T20:09:14;-3.60;99.90
9668;DHT22;4872;48.316;10.650;2022-12-18T20:11:41;-3.50;99.90
9668;DHT22;4872;48.316;10.650;2022-12-18T20:14:08;-3.50;99.90
9668;DHT22;4872;48.316;10.650;2022-12-18T20:16:35;-3.50;99.90
9668;DHT22;4872;48.316;10.650;2022-12-18T20:19:02;-3.50;99.90
9668;DHT22;4872;48.316;10.650;2022-12-18T20:21:29;-3.50;99.90
9668;DHT22;4872;48.316;10.650;2022-12-18T20:23:57;-3.50;99.90
9668;DHT22;4872;48.316;10.650;2022-12-18T20:26:26;-3.50;99.90
9668;DHT22;4872;48.316;10.650;2022-12-18T20:28:54;-3.40;99.90
9668;DHT22;4872;48.316;10.650;2022-12-18T20:31:21;-3.40;99.90
9668;DHT22;4872;48.316;10.650;2022-12-18T20:33:48;-3.40;99.90
9668;DHT22;4872;48.316;10.650;2022-12-18T20:36:19;-3.50;99.90
9668;DHT22;4872;48.316;10.650;2022-12-18T20:38:47;-3.50;99.90
9668;DHT22;4872;48.316;10.650;2022-12-18T20:41:18;-3.50;99.90
9668;DHT22;4872;48.316;10.650;2022-12-18T20:43:45;-3.40;99.90
9668;DHT22;4872;48.316;10.650;2022-12-18T20:46:14;-3.40;99.90
9668;DHT22;4872;48.316;10.650;2022-12-18T20:48:42;-3.40;99.90
9668;DHT22;4872;48.316;10.650;2022-12-18T20:51:10;-3.40;99.90
9668;DHT22;4872;48.316;10.650;2022-12-18T20:53:38;-3.40;99.90
9668;DHT22;4872;48.316;10.650;2022-12-18T20:56:06;-3.40;99.90